createdAt,value
2019-01-10T00:03:12.074Z,0.00
2019-01-10T00:08:15.866Z,0.00
2019-01-10T00:13:19.674Z,0.00
2019-01-10T00:18:23.497Z,0.00
2019-01-10T00:23:27.274Z,0.00
2019-01-10T00:28:31.067Z,0.00
2019-01-10T00:33:34.952Z,0.00
2019-01-10T00:38:38.762Z,0.00
2019-01-10T00:43:42.565Z,0.00
2019-01-10T00:48:46.405Z,0.00
2019-01-10T00:53:50.207Z,0.00
2019-01-10T00:58:54.009Z,0.00
2019-01-10T01:03:57.809Z,0.00
2019-01-10T01:09:01.598Z,0.00
2019-01-10T01:14:05.403Z,0.00
2019-01-10T01:19:09.210Z,0.00
2019-01-10T01:24:14.161Z,0.00
2019-01-10T01:29:18.534Z,0.00
2019-01-10T01:34:22.372Z,0.00
2019-01-10T01:39:26.188Z,0.00
2019-01-10T01:44:30.030Z,0.00
2019-01-10T01:49:33.833Z,0.00
2019-01-10T01:54:37.636Z,0.00
2019-01-10T01:59:41.443Z,0.00
2019-01-10T02:04:45.280Z,0.00
2019-01-10T02:09:49.043Z,0.00
2019-01-10T02:14:52.846Z,0.00
2019-01-10T02:19:56.652Z,0.00
2019-01-10T02:25:00.452Z,0.00
2019-01-10T02:30:05.144Z,0.00
2019-01-10T02:35:09.210Z,0.00
2019-01-10T02:40:13.050Z,0.00
2019-01-10T02:45:17.188Z,0.00
2019-01-10T02:50:22.598Z,0.00
2019-01-10T02:55:26.407Z,0.00
2019-01-10T03:00:31.523Z,0.00
2019-01-10T03:05:35.488Z,0.00
2019-01-10T03:10:39.278Z,0.00
2019-01-10T03:15:43.087Z,0.00
2019-01-10T03:20:46.891Z,0.00
2019-01-10T03:25:50.678Z,0.00
2019-01-10T03:30:54.475Z,0.00
2019-01-10T03:35:58.272Z,0.00
2019-01-10T03:41:02.067Z,0.00
2019-01-10T03:46:05.857Z,0.00
2019-01-10T03:51:09.655Z,0.00
2019-01-10T03:56:13.432Z,0.00
2019-01-10T04:01:17.987Z,0.00
2019-01-10T04:06:21.786Z,0.00
2019-01-10T04:11:25.664Z,0.00
2019-01-10T04:16:29.439Z,0.00
2019-01-10T04:21:33.216Z,0.00
2019-01-10T04:26:36.997Z,0.00
2019-01-10T04:31:40.782Z,0.00
2019-01-10T04:36:44.561Z,0.00
2019-01-10T04:41:48.338Z,0.00
2019-01-10T04:46:52.123Z,0.00
2019-01-10T04:51:55.904Z,0.00
2019-01-10T04:56:59.678Z,0.00
2019-01-10T05:02:03.457Z,0.00
2019-01-10T05:07:07.238Z,0.00
2019-01-10T05:12:11.049Z,0.80
2019-01-10T05:17:14.828Z,0.00
2019-01-10T05:22:18.620Z,0.00
2019-01-10T05:27:22.407Z,0.00
2019-01-10T05:32:26.186Z,0.00
2019-01-10T05:37:29.976Z,0.00
2019-01-10T05:42:33.782Z,0.00
2019-01-10T05:47:37.583Z,0.00
2019-01-10T05:52:41.366Z,0.00
2019-01-10T05:57:45.145Z,0.00
2019-01-10T06:02:48.924Z,0.00
2019-01-10T06:07:52.699Z,0.25
2019-01-10T06:12:56.504Z,0.00
2019-01-10T06:18:00.284Z,0.00
2019-01-10T06:23:04.136Z,0.00
2019-01-10T06:28:07.987Z,0.00
2019-01-10T06:33:11.773Z,0.00
2019-01-10T06:38:15.537Z,0.00
2019-01-10T06:43:19.342Z,0.00
2019-01-10T06:48:23.120Z,0.00
2019-01-10T06:53:26.895Z,0.00
2019-01-10T06:58:30.669Z,0.00
2019-01-10T07:03:34.498Z,0.00
2019-01-10T07:08:38.275Z,0.00
2019-01-10T07:13:42.063Z,0.00
2019-01-10T07:18:45.851Z,0.00
2019-01-10T07:23:49.622Z,0.00
2019-01-10T07:28:54.050Z,0.00
2019-01-10T07:34:03.045Z,0.00
2019-01-10T07:39:09.149Z,0.00
2019-01-10T07:44:12.937Z,0.00
2019-01-10T07:49:16.724Z,0.00
2019-01-10T07:54:20.523Z,1.00
2019-01-10T07:59:24.306Z,1.00
2019-01-10T08:04:28.103Z,0.50
2019-01-10T08:09:31.885Z,1.00
2019-01-10T08:14:35.680Z,0.00
2019-01-10T08:19:39.526Z,0.00
2019-01-10T08:24:43.350Z,0.00
2019-01-10T08:29:47.128Z,0.00
2019-01-10T08:34:51.290Z,0.00
2019-01-10T08:39:55.177Z,0.00
2019-01-10T08:44:58.961Z,0.00
2019-01-10T08:50:02.887Z,0.00
2019-01-10T08:55:07.095Z,0.00
2019-01-10T09:00:18.460Z,0.00
2019-01-10T09:05:22.254Z,0.00
2019-01-10T09:10:31.019Z,0.00
2019-01-10T09:15:34.979Z,0.00
2019-01-10T09:20:38.837Z,0.00
2019-01-10T09:25:42.610Z,0.00
2019-01-10T09:30:46.391Z,0.00
2019-01-10T09:35:50.183Z,0.00
2019-01-10T09:40:53.962Z,0.00
2019-01-10T09:45:57.745Z,0.00
2019-01-10T09:51:01.518Z,0.00
2019-01-10T09:56:05.315Z,0.00
2019-01-10T10:01:09.098Z,0.00
2019-01-10T10:06:12.884Z,0.00
2019-01-10T10:11:16.672Z,0.00
2019-01-10T10:16:20.467Z,0.00
2019-01-10T10:21:24.233Z,0.00
2019-01-10T10:26:28.181Z,0.20
2019-01-10T10:31:31.958Z,0.00
2019-01-10T10:36:35.731Z,0.00
2019-01-10T10:41:40.672Z,0.00
2019-01-10T10:46:44.518Z,0.50
2019-01-10T10:51:48.369Z,0.75
2019-01-10T10:56:52.145Z,0.00
2019-01-10T11:01:55.943Z,0.00
2019-01-10T11:06:59.719Z,0.00
2019-01-10T11:12:03.497Z,0.00
2019-01-10T11:17:07.279Z,1.00
2019-01-10T11:22:11.061Z,0.00
2019-01-10T11:27:14.839Z,0.00
2019-01-10T11:32:18.624Z,0.00
2019-01-10T11:37:22.396Z,0.50
2019-01-10T11:42:26.169Z,0.00
2019-01-10T11:47:29.964Z,0.00
2019-01-10T11:52:33.745Z,0.00
2019-01-10T11:57:37.527Z,0.00
2019-01-10T12:02:41.317Z,0.75
2019-01-10T12:07:45.119Z,0.00
2019-01-10T12:12:48.897Z,0.00
2019-01-10T12:17:52.667Z,0.00
2019-01-10T12:22:56.445Z,1.00
2019-01-10T12:28:00.238Z,1.00
2019-01-10T12:33:04.562Z,0.00
2019-01-10T12:38:08.345Z,0.00
2019-01-10T12:43:12.158Z,0.00
2019-01-10T12:48:15.935Z,0.00
2019-01-10T12:53:19.711Z,0.00
2019-01-10T12:58:23.502Z,2.00
2019-01-10T13:03:27.284Z,3.00
2019-01-10T13:08:31.084Z,2.50
2019-01-10T13:13:34.864Z,2.00
2019-01-10T13:18:38.655Z,2.00
2019-01-10T13:23:42.435Z,1.00
2019-01-10T13:28:46.214Z,1.00
2019-01-10T13:33:50.198Z,2.00
2019-01-10T13:38:53.974Z,2.00
2019-01-10T13:43:57.783Z,1.75
2019-01-10T13:49:01.569Z,1.00
2019-01-10T13:54:05.870Z,1.00
2019-01-10T13:59:09.622Z,1.00
2019-01-10T14:09:17.216Z,2.00
2019-01-10T14:14:21.000Z,1.00
2019-01-10T14:19:24.794Z,1.00
2019-01-10T14:24:28.766Z,0.40
2019-01-10T14:29:32.562Z,4.00
2019-01-10T14:34:36.387Z,15.00
2019-01-10T14:39:40.197Z,14.00
2019-01-10T14:44:44.036Z,19.50
2019-01-10T14:49:47.884Z,30.75
2019-01-10T14:54:51.684Z,43.25
2019-01-10T14:59:55.507Z,36.75
2019-01-10T15:04:59.315Z,37.20
2019-01-10T15:10:03.449Z,35.75
2019-01-10T15:15:09.611Z,35.00
2019-01-10T15:20:16.362Z,32.00
2019-01-10T15:25:20.201Z,32.80
2019-01-10T15:30:25.886Z,29.40
2019-01-10T15:35:29.710Z,30.75
2019-01-10T15:40:34.339Z,29.25
2019-01-10T15:45:38.156Z,31.00
2019-01-10T15:50:41.939Z,29.40
2019-01-10T15:55:45.747Z,27.60
2019-01-10T16:00:49.558Z,31.25
2019-01-10T16:05:53.485Z,30.25
2019-01-10T16:10:57.482Z,29.50
2019-01-10T16:16:01.301Z,25.20
2019-01-10T16:21:05.116Z,25.50
2019-01-10T16:26:08.994Z,26.60
2019-01-10T16:31:12.800Z,28.80
2019-01-10T16:36:16.623Z,25.75
2019-01-10T16:41:20.458Z,25.80
2019-01-10T16:46:24.264Z,26.50
2019-01-10T16:51:28.090Z,26.00
2019-01-10T16:56:31.954Z,30.50
2019-01-10T17:01:35.756Z,25.40
2019-01-10T17:06:39.563Z,27.50
2019-01-10T17:11:43.383Z,29.75
2019-01-10T17:16:50.237Z,28.50
2019-01-10T17:21:52.728Z,32.50
2019-01-10T17:26:56.531Z,35.00
2019-01-10T17:32:00.339Z,36.00
2019-01-10T17:37:04.183Z,35.00
2019-01-10T17:42:07.986Z,33.20
2019-01-10T17:47:11.818Z,33.50
2019-01-10T17:52:15.691Z,29.25
2019-01-10T17:57:19.531Z,32.50
2019-01-10T18:02:23.354Z,33.50
2019-01-10T18:07:27.163Z,32.60
2019-01-10T18:12:30.991Z,32.40
2019-01-10T18:17:34.857Z,28.00
2019-01-10T18:22:38.695Z,28.00
2019-01-10T18:27:42.509Z,29.00
2019-01-10T18:32:46.325Z,28.25
2019-01-10T18:37:50.159Z,28.25
2019-01-10T18:42:53.999Z,26.40
2019-01-10T18:47:57.810Z,29.00
2019-01-10T18:53:01.660Z,27.25
2019-01-10T18:58:05.486Z,24.75
2019-01-10T19:03:09.318Z,24.00
2019-01-10T19:08:13.124Z,24.75
2019-01-10T19:13:16.955Z,24.00
2019-01-10T19:18:20.834Z,23.25
2019-01-10T19:23:24.659Z,21.75
2019-01-10T19:28:28.469Z,21.00
2019-01-10T19:33:32.311Z,21.00
2019-01-10T19:38:36.164Z,19.80
2019-01-10T19:43:40.006Z,19.40
2019-01-10T19:48:43.825Z,20.75
2019-01-10T19:53:47.649Z,19.75
2019-01-10T19:58:51.454Z,17.00
2019-01-10T20:03:55.280Z,17.50
2019-01-10T20:08:59.109Z,16.80
2019-01-10T20:14:02.928Z,16.00
2019-01-10T20:19:06.730Z,16.00
2019-01-10T20:24:10.550Z,16.75
2019-01-10T20:29:14.410Z,16.00
2019-01-10T20:34:18.226Z,16.25
2019-01-10T20:39:22.033Z,15.50
2019-01-10T20:44:25.871Z,14.75
2019-01-10T20:49:29.695Z,12.75
2019-01-10T20:54:33.530Z,13.50
2019-01-10T20:59:37.412Z,11.40
2019-01-10T21:04:41.212Z,13.60
2019-01-10T21:09:45.108Z,12.00
2019-01-10T21:14:48.919Z,11.80
2019-01-10T21:19:52.748Z,11.25
2019-01-10T21:24:56.566Z,11.80
2019-01-10T21:30:00.408Z,11.25
2019-01-10T21:35:05.130Z,11.75
2019-01-10T21:40:11.308Z,12.00
2019-01-10T21:45:16.847Z,10.60
2019-01-10T21:50:22.841Z,9.00
2019-01-10T21:55:26.640Z,10.00
2019-01-10T22:00:31.757Z,12.25
2019-01-10T22:05:35.708Z,10.00
2019-01-10T22:10:39.506Z,11.50
2019-01-10T22:15:43.480Z,11.00
2019-01-10T22:20:47.292Z,10.00
2019-01-10T22:25:51.386Z,9.75
2019-01-10T22:30:55.192Z,9.00
2019-01-10T22:35:58.984Z,8.40
2019-01-10T22:41:02.791Z,9.40
2019-01-10T22:46:06.608Z,10.75
2019-01-10T22:51:10.435Z,8.25
2019-01-10T22:56:14.232Z,9.00
2019-01-10T23:01:48.544Z,9.00
2019-01-10T23:06:52.342Z,7.60
2019-01-10T23:11:56.151Z,8.00
2019-01-10T23:16:59.999Z,8.00
2019-01-10T23:22:10.982Z,9.25
2019-01-10T23:27:14.760Z,8.00
2019-01-10T23:32:18.549Z,8.00
2019-01-10T23:37:26.316Z,7.75
2019-01-10T23:42:30.104Z,8.00
2019-01-10T23:47:34.071Z,8.50
2019-01-10T23:52:38.211Z,8.00
2019-01-10T23:57:42.008Z,8.00
